createdAt,value
2023-10-23T00:02:04.581Z,10.31
2023-10-23T00:04:31.224Z,9.87
2023-10-23T00:06:57.925Z,9.71
2023-10-23T00:09:24.446Z,10.04
2023-10-23T00:11:50.947Z,10.56
2023-10-23T00:14:17.476Z,9.26
2023-10-23T00:16:44.065Z,8.57
2023-10-23T00:19:10.632Z,9.49
2023-10-23T00:21:37.220Z,8.85
2023-10-23T00:24:03.984Z,8.67
2023-10-23T00:26:30.476Z,8.30
2023-10-23T00:28:57.006Z,8.93
2023-10-23T00:31:23.548Z,8.75
2023-10-23T00:33:50.256Z,8.07
2023-10-23T00:36:16.916Z,7.92
2023-10-23T00:38:43.459Z,8.51
2023-10-23T00:41:09.990Z,9.25
2023-10-23T00:43:36.604Z,9.50
2023-10-23T00:46:20.757Z,8.54
2023-10-23T00:48:48.673Z,9.07
2023-10-23T00:51:16.633Z,9.97
2023-10-23T00:53:44.720Z,9.27
2023-10-23T00:56:11.555Z,9.90
2023-10-23T00:58:43.621Z,9.22
2023-10-23T01:01:14.071Z,8.62
2023-10-23T01:03:41.288Z,8.77
2023-10-23T01:06:08.213Z,8.62
2023-10-23T01:08:34.742Z,8.75
2023-10-23T01:11:01.357Z,7.33
2023-10-23T01:13:28.283Z,8.87
2023-10-23T01:15:55.227Z,9.54
2023-10-23T01:18:21.885Z,9.10
2023-10-23T01:20:49.496Z,9.84
2023-10-23T01:23:15.987Z,9.38
2023-10-23T01:25:42.544Z,8.98
2023-10-23T01:28:09.068Z,8.86
2023-10-23T01:30:35.747Z,8.79
2023-10-23T01:33:02.416Z,8.06
2023-10-23T01:35:28.942Z,9.12
2023-10-23T01:37:55.514Z,8.85
2023-10-23T01:40:22.041Z,9.72
2023-10-23T01:42:48.736Z,9.06
2023-10-23T01:45:15.387Z,9.91
2023-10-23T01:47:42.048Z,8.58
2023-10-23T01:50:08.822Z,9.97
2023-10-23T01:52:35.401Z,9.85
2023-10-23T01:55:02.158Z,8.31
2023-10-23T01:57:28.856Z,8.90
2023-10-23T01:59:56.650Z,7.93
2023-10-23T02:02:23.182Z,8.74
2023-10-23T02:04:50.194Z,8.56
2023-10-23T02:07:16.677Z,9.05
2023-10-23T02:09:43.171Z,8.62
2023-10-23T02:12:09.708Z,8.75
2023-10-23T02:14:36.378Z,7.66
2023-10-23T02:17:03.266Z,7.88
2023-10-23T02:19:32.968Z,8.00
2023-10-23T02:21:59.556Z,9.03
2023-10-23T02:24:26.133Z,9.42
2023-10-23T02:26:53.070Z,8.35
2023-10-23T02:29:19.592Z,8.63
2023-10-23T02:31:46.152Z,9.04
2023-10-23T02:34:12.943Z,9.57
2023-10-23T02:36:39.672Z,9.30
2023-10-23T02:39:07.347Z,8.75
2023-10-23T02:41:33.931Z,9.63
2023-10-23T02:44:00.557Z,9.66
2023-10-23T02:46:27.095Z,9.70
2023-10-23T02:48:53.705Z,8.99
2023-10-23T02:51:20.403Z,8.82
2023-10-23T02:53:46.927Z,9.99
2023-10-23T02:56:14.280Z,9.50
2023-10-23T02:58:40.951Z,9.60
2023-10-23T03:01:21.829Z,9.09
2023-10-23T03:03:49.336Z,9.78
2023-10-23T03:06:16.099Z,8.87
2023-10-23T03:08:42.879Z,8.81
2023-10-23T03:11:09.442Z,9.54
2023-10-23T03:13:35.913Z,8.71
2023-10-23T03:16:02.865Z,8.90
2023-10-23T03:18:30.225Z,9.31
2023-10-23T03:21:03.677Z,10.19
2023-10-23T03:23:31.421Z,9.14
2023-10-23T03:25:58.781Z,10.27
2023-10-23T03:28:25.348Z,10.19
2023-10-23T03:30:52.196Z,8.78
2023-10-23T03:33:18.897Z,7.20
2023-10-23T03:35:45.692Z,8.60
2023-10-23T03:38:13.944Z,7.63
2023-10-23T03:40:40.714Z,8.12
2023-10-23T03:43:07.236Z,9.05
2023-10-23T03:45:38.320Z,9.69
2023-10-23T03:48:05.085Z,10.25
2023-10-23T03:50:31.818Z,8.68
2023-10-23T03:52:59.077Z,8.88
2023-10-23T03:55:26.165Z,10.45
2023-10-23T03:57:52.846Z,9.97
2023-10-23T04:00:19.686Z,9.19
2023-10-23T04:02:47.124Z,9.38
2023-10-23T04:05:14.003Z,9.75
2023-10-23T04:07:40.553Z,9.24
2023-10-23T04:10:08.785Z,7.44
2023-10-23T04:12:35.857Z,9.61
2023-10-23T04:15:02.951Z,9.71
2023-10-23T04:17:29.923Z,8.38
2023-10-23T04:19:56.905Z,9.90
2023-10-23T04:22:23.786Z,8.60
2023-10-23T04:24:50.477Z,9.41
2023-10-23T04:27:16.998Z,8.96
2023-10-23T04:29:43.482Z,8.38
2023-10-23T04:32:10.046Z,8.89
2023-10-23T04:34:36.545Z,8.54
2023-10-23T04:37:04.301Z,9.34
2023-10-23T04:39:31.006Z,8.62
2023-10-23T04:41:57.558Z,9.39
2023-10-23T04:44:24.349Z,9.17
2023-10-23T04:46:51.043Z,10.06
2023-10-23T04:49:17.656Z,9.28
2023-10-23T04:51:44.384Z,9.53
2023-10-23T04:54:10.982Z,8.72
2023-10-23T04:56:37.487Z,9.24
2023-10-23T04:59:05.214Z,9.59
2023-10-23T05:01:31.999Z,9.87
2023-10-23T05:03:58.815Z,10.17
2023-10-23T05:06:27.332Z,9.69
2023-10-23T05:08:54.607Z,8.61
2023-10-23T05:11:21.496Z,8.48
2023-10-23T05:13:48.254Z,9.61
2023-10-23T05:16:15.020Z,9.05
2023-10-23T05:18:42.131Z,9.12
2023-10-23T05:21:10.952Z,8.05
2023-10-23T05:23:38.298Z,9.31
2023-10-23T05:26:04.847Z,9.64
2023-10-23T05:28:32.920Z,9.39
2023-10-23T05:30:59.484Z,9.32
2023-10-23T05:33:26.299Z,9.66
2023-10-23T05:36:04.651Z,8.89
2023-10-23T05:38:32.709Z,7.95
2023-10-23T05:41:00.360Z,8.33
2023-10-23T05:43:30.270Z,8.94
2023-10-23T05:45:57.601Z,9.61
2023-10-23T05:48:24.901Z,9.62
2023-10-23T05:51:01.565Z,10.07
2023-10-23T05:53:28.794Z,10.26
2023-10-23T05:55:55.911Z,9.25
2023-10-23T05:58:22.615Z,9.19
2023-10-23T06:00:49.252Z,9.20
2023-10-23T06:03:15.822Z,9.56
2023-10-23T06:05:43.269Z,8.99
2023-10-23T06:08:12.912Z,9.53
2023-10-23T06:10:44.075Z,9.28
2023-10-23T06:13:10.830Z,8.98
2023-10-23T06:15:37.388Z,9.76
2023-10-23T06:18:04.187Z,9.23
2023-10-23T06:20:31.290Z,7.75
2023-10-23T06:22:57.747Z,8.60
2023-10-23T06:25:24.304Z,9.91
2023-10-23T06:27:50.833Z,9.54
2023-10-23T06:30:17.454Z,9.55
2023-10-23T06:32:43.969Z,9.20
2023-10-23T06:35:10.565Z,9.90
2023-10-23T06:37:37.098Z,9.96
2023-10-23T06:40:04.138Z,10.38
2023-10-23T06:42:30.648Z,9.44
2023-10-23T06:44:58.549Z,9.30
2023-10-23T06:47:25.133Z,9.70
2023-10-23T06:49:51.698Z,8.67
2023-10-23T06:52:18.308Z,9.25
2023-10-23T06:54:44.826Z,9.09
2023-10-23T06:57:11.382Z,10.00
2023-10-23T06:59:38.151Z,10.06
2023-10-23T07:02:04.802Z,10.99
2023-10-23T07:04:31.349Z,10.32
2023-10-23T07:06:58.747Z,10.66
2023-10-23T07:09:25.314Z,10.76
2023-10-23T07:11:52.640Z,10.10
2023-10-23T07:14:19.629Z,10.48
2023-10-23T07:16:48.994Z,9.94
2023-10-23T07:19:16.088Z,9.31
2023-10-23T07:21:42.663Z,9.03
2023-10-23T07:24:09.523Z,9.96
2023-10-23T07:26:36.478Z,10.49
2023-10-23T07:29:03.022Z,10.26
2023-10-23T07:31:29.506Z,10.34
2023-10-23T07:33:56.101Z,8.73
2023-10-23T07:36:22.667Z,9.94
2023-10-23T07:38:49.247Z,10.46
2023-10-23T07:41:15.746Z,10.02
2023-10-23T07:43:43.853Z,9.02
2023-10-23T07:46:17.654Z,10.05
2023-10-23T07:48:45.834Z,10.80
2023-10-23T07:51:12.779Z,10.86
2023-10-23T07:53:39.421Z,11.10
2023-10-23T07:56:06.801Z,10.06
2023-10-23T07:58:34.311Z,10.56
2023-10-23T08:01:07.836Z,11.15
2023-10-23T08:03:35.676Z,11.03
2023-10-23T08:06:04.673Z,11.14
2023-10-23T08:08:40.236Z,10.51
2023-10-23T08:11:09.059Z,10.70
2023-10-23T08:13:36.209Z,10.40
2023-10-23T08:16:05.100Z,9.36
2023-10-23T08:18:38.954Z,10.17
2023-10-23T08:21:11.828Z,10.84
2023-10-23T08:23:38.905Z,10.14
2023-10-23T08:26:05.460Z,10.60
2023-10-23T08:28:49.434Z,10.11
2023-10-23T08:31:34.054Z,9.62
2023-10-23T08:34:01.633Z,10.57
2023-10-23T08:36:28.593Z,10.63
2023-10-23T08:38:55.217Z,10.72
2023-10-23T08:41:22.134Z,9.91
2023-10-23T08:43:48.758Z,9.57
2023-10-23T08:46:15.498Z,11.05
2023-10-23T08:48:42.421Z,10.63
2023-10-23T08:51:09.427Z,11.82
2023-10-23T08:53:49.264Z,11.35
2023-10-23T08:56:23.150Z,10.90
2023-10-23T08:58:57.658Z,10.73
2023-10-23T09:01:24.433Z,10.86
2023-10-23T09:04:03.339Z,11.05
2023-10-23T09:06:31.751Z,11.74
2023-10-23T09:08:59.029Z,12.02
2023-10-23T09:11:45.827Z,13.56
2023-10-23T09:14:24.587Z,14.38
2023-10-23T09:16:52.608Z,13.94
2023-10-23T09:19:26.611Z,12.68
2023-10-23T09:21:59.892Z,11.92
2023-10-23T09:24:26.808Z,11.06
2023-10-23T09:26:53.612Z,12.35
2023-10-23T09:29:24.832Z,12.61
2023-10-23T09:31:55.135Z,12.41
2023-10-23T09:34:22.479Z,11.34
2023-10-23T09:36:53.108Z,11.87
2023-10-23T09:39:38.979Z,12.56
2023-10-23T09:42:08.121Z,13.38
2023-10-23T09:44:37.693Z,13.04
2023-10-23T09:47:06.614Z,12.72
2023-10-23T09:49:33.965Z,12.30
2023-10-23T09:52:01.409Z,11.73
2023-10-23T09:54:31.652Z,12.12
2023-10-23T09:57:05.005Z,12.28
2023-10-23T09:59:44.216Z,12.84
2023-10-23T10:02:11.367Z,12.54
2023-10-23T10:05:08.813Z,12.83
2023-10-23T10:07:35.252Z,12.36
2023-10-23T10:10:02.683Z,12.45
2023-10-23T10:12:30.044Z,11.24
2023-10-23T10:14:58.416Z,12.11
2023-10-23T10:17:26.318Z,12.77
2023-10-23T10:19:53.447Z,12.61
2023-10-23T10:22:30.427Z,13.02
2023-10-23T10:24:58.015Z,12.49
2023-10-23T10:27:25.960Z,12.16
2023-10-23T10:29:52.962Z,12.63
2023-10-23T10:32:19.582Z,13.13
2023-10-23T10:34:46.163Z,12.94
2023-10-23T10:37:25.327Z,12.40
2023-10-23T10:40:02.747Z,13.21
2023-10-23T10:42:30.809Z,12.12
2023-10-23T10:45:16.904Z,12.59
2023-10-23T10:47:47.516Z,13.28
2023-10-23T10:50:31.539Z,13.70
2023-10-23T10:53:03.813Z,12.92
2023-10-23T10:55:31.142Z,13.46
2023-10-23T10:57:59.068Z,12.82
2023-10-23T11:00:29.257Z,13.58
2023-10-23T11:02:57.179Z,14.15
2023-10-23T11:05:24.065Z,12.51
2023-10-23T11:07:51.345Z,13.82
2023-10-23T11:10:18.794Z,13.33
2023-10-23T11:12:45.561Z,14.26
2023-10-23T11:15:12.114Z,14.24
2023-10-23T11:17:38.707Z,14.32
2023-10-23T11:20:15.328Z,14.14
2023-10-23T11:22:46.202Z,14.00
2023-10-23T11:25:13.324Z,14.52
2023-10-23T11:27:40.178Z,13.58
2023-10-23T11:30:08.265Z,14.21
2023-10-23T11:32:35.476Z,14.16
2023-10-23T11:35:05.373Z,14.69
2023-10-23T11:37:42.657Z,14.63
2023-10-23T11:40:11.353Z,15.28
2023-10-23T11:42:47.622Z,15.15
2023-10-23T11:45:15.527Z,14.49
2023-10-23T11:47:43.693Z,13.42
2023-10-23T11:50:11.926Z,14.96
2023-10-23T11:52:46.216Z,15.00
2023-10-23T11:55:15.429Z,14.81
2023-10-23T11:57:45.668Z,14.69
2023-10-23T12:00:15.825Z,15.87
2023-10-23T12:02:43.982Z,15.41
2023-10-23T12:05:13.730Z,14.54
2023-10-23T12:07:48.520Z,14.32
2023-10-23T12:10:16.260Z,15.08
2023-10-23T12:12:44.100Z,13.82
2023-10-23T12:15:12.336Z,15.23
2023-10-23T12:17:40.136Z,14.16
2023-10-23T12:20:08.595Z,13.81
2023-10-23T12:22:38.900Z,13.55
2023-10-23T12:25:06.700Z,15.36
2023-10-23T12:27:34.334Z,15.04
2023-10-23T12:30:06.520Z,14.51
2023-10-23T12:33:17.521Z,15.78
2023-10-23T12:35:22.698Z,14.34
2023-10-23T12:37:49.346Z,14.05
2023-10-23T12:40:16.035Z,15.37
2023-10-23T12:42:42.648Z,16.31
2023-10-23T12:45:09.710Z,15.93
2023-10-23T12:47:36.681Z,16.30
2023-10-23T12:50:04.798Z,16.11
2023-10-23T12:52:32.122Z,15.72
2023-10-23T12:54:58.803Z,16.30
2023-10-23T12:57:25.427Z,15.61
2023-10-23T12:59:51.968Z,13.29
2023-10-23T13:02:18.482Z,15.69
2023-10-23T13:04:47.401Z,16.56
2023-10-23T13:07:15.653Z,15.86
2023-10-23T13:09:42.192Z,15.05
2023-10-23T13:12:08.821Z,16.33
2023-10-23T13:14:35.356Z,16.19
2023-10-23T13:17:01.936Z,15.31
2023-10-23T13:19:28.520Z,14.84
2023-10-23T13:21:55.072Z,16.37
2023-10-23T13:24:21.577Z,16.01
2023-10-23T13:26:48.114Z,16.46
2023-10-23T13:29:14.592Z,16.59
2023-10-23T13:31:41.331Z,16.70
2023-10-23T13:34:08.008Z,16.27
2023-10-23T13:36:34.604Z,13.67
2023-10-23T13:39:07.017Z,15.25
2023-10-23T13:41:34.070Z,15.42
2023-10-23T13:44:00.904Z,15.42
2023-10-23T13:46:28.063Z,14.64
2023-10-23T13:48:54.867Z,16.15
2023-10-23T13:51:21.589Z,15.83
2023-10-23T13:53:48.283Z,14.75
2023-10-23T13:56:14.797Z,14.73
2023-10-23T13:58:41.369Z,15.67
2023-10-23T14:01:07.987Z,15.73
2023-10-23T14:03:34.726Z,15.39
2023-10-23T14:06:01.490Z,16.28
2023-10-23T14:08:35.535Z,15.27
2023-10-23T14:11:58.539Z,15.58
2023-10-23T14:14:01.080Z,16.58
2023-10-23T14:16:28.173Z,14.70
2023-10-23T14:18:54.957Z,15.17
2023-10-23T14:21:21.594Z,14.26
2023-10-23T14:23:48.092Z,14.12
2023-10-23T14:26:14.633Z,14.16
2023-10-23T14:28:41.231Z,15.61
2023-10-23T14:31:07.824Z,15.93
2023-10-23T14:33:34.382Z,14.70
2023-10-23T14:36:01.050Z,14.80
2023-10-23T14:38:27.703Z,14.59
2023-10-23T14:40:55.481Z,14.56
2023-10-23T14:43:22.247Z,14.35
2023-10-23T14:45:55.672Z,15.26
2023-10-23T14:48:24.122Z,15.29
2023-10-23T14:50:53.915Z,14.50
2023-10-23T14:53:20.821Z,14.76
2023-10-23T14:55:47.291Z,15.34
2023-10-23T14:58:13.828Z,14.19
2023-10-23T15:00:44.387Z,14.62
2023-10-23T15:03:10.937Z,15.50
2023-10-23T15:05:37.485Z,15.87
2023-10-23T15:08:04.220Z,15.16
2023-10-23T15:10:31.409Z,15.37
2023-10-23T15:12:59.094Z,14.85
2023-10-23T15:15:25.659Z,12.87
2023-10-23T15:17:52.195Z,13.81
2023-10-23T15:20:18.795Z,14.54
2023-10-23T15:22:45.369Z,14.82
2023-10-23T15:25:12.029Z,15.21
2023-10-23T15:27:40.990Z,14.54
2023-10-23T15:30:08.263Z,14.55
2023-10-23T15:32:34.952Z,13.34
2023-10-23T15:35:01.584Z,14.17
2023-10-23T15:37:28.164Z,13.31
2023-10-23T15:39:54.893Z,13.72
2023-10-23T15:42:21.426Z,13.59
2023-10-23T15:44:48.018Z,13.65
2023-10-23T15:47:14.625Z,13.08
2023-10-23T15:49:41.448Z,14.25
2023-10-23T15:52:08.402Z,14.02
2023-10-23T15:54:35.273Z,13.70
2023-10-23T15:57:02.144Z,14.08
2023-10-23T15:59:29.984Z,14.26
2023-10-23T16:01:56.731Z,11.91
2023-10-23T16:04:23.409Z,14.16
2023-10-23T16:06:51.244Z,13.55
2023-10-23T16:09:26.754Z,14.21
2023-10-23T16:11:55.481Z,13.82
2023-10-23T16:14:25.466Z,14.38
2023-10-23T16:16:54.482Z,13.66
2023-10-23T16:19:21.303Z,13.75
2023-10-23T16:21:47.849Z,14.31
2023-10-23T16:24:14.401Z,12.21
2023-10-23T16:26:40.931Z,13.36
2023-10-23T16:29:07.503Z,12.74
2023-10-23T16:31:34.115Z,12.09
2023-10-23T16:34:00.884Z,11.95
2023-10-23T16:36:28.261Z,12.71
2023-10-23T16:38:54.836Z,12.85
2023-10-23T16:41:21.423Z,13.12
2023-10-23T16:43:48.013Z,12.17
2023-10-23T16:46:14.639Z,12.58
2023-10-23T16:48:42.783Z,12.15
2023-10-23T16:51:09.479Z,12.57
2023-10-23T16:53:36.575Z,10.90
2023-10-23T16:56:04.085Z,12.10
2023-10-23T16:58:30.702Z,12.01
2023-10-23T17:00:57.601Z,11.09
2023-10-23T17:03:25.964Z,10.95
2023-10-23T17:05:54.804Z,11.93
2023-10-23T17:08:21.430Z,11.36
2023-10-23T17:10:48.005Z,10.97
2023-10-23T17:13:14.648Z,11.11
2023-10-23T17:15:44.754Z,11.43
2023-10-23T17:18:11.389Z,11.33
2023-10-23T17:20:42.408Z,11.00
2023-10-23T17:23:09.386Z,10.57
2023-10-23T17:25:42.280Z,11.42
2023-10-23T17:28:09.434Z,12.44
2023-10-23T17:30:36.992Z,12.41
2023-10-23T17:33:05.228Z,11.27
2023-10-23T17:35:31.790Z,11.87
2023-10-23T17:37:58.256Z,12.89
2023-10-23T17:40:24.835Z,13.11
2023-10-23T17:42:51.353Z,13.06
2023-10-23T17:45:17.854Z,12.17
2023-10-23T17:47:44.398Z,12.45
2023-10-23T17:50:11.148Z,11.53
2023-10-23T17:52:38.433Z,12.02
2023-10-23T17:55:06.696Z,12.11
2023-10-23T17:57:33.494Z,11.84
2023-10-23T18:00:00.044Z,12.29
2023-10-23T18:02:26.646Z,12.13
2023-10-23T18:04:53.192Z,12.86
2023-10-23T18:07:20.285Z,11.38
2023-10-23T18:09:47.199Z,11.61
2023-10-23T18:12:22.086Z,12.89
2023-10-23T18:14:53.608Z,11.59
2023-10-23T18:17:20.153Z,12.38
2023-10-23T18:19:46.751Z,11.57
2023-10-23T18:22:13.396Z,11.00
2023-10-23T18:24:39.910Z,11.53
2023-10-23T18:27:06.501Z,11.26
2023-10-23T18:29:35.804Z,11.28
2023-10-23T18:32:02.570Z,12.44
2023-10-23T18:34:29.157Z,12.16
2023-10-23T18:36:55.849Z,11.48
2023-10-23T18:39:22.554Z,12.09
2023-10-23T18:41:52.820Z,12.89
2023-10-23T18:44:19.433Z,12.71
2023-10-23T18:46:46.086Z,11.49
2023-10-23T18:49:13.143Z,11.53
2023-10-23T18:51:39.682Z,12.42
2023-10-23T18:54:06.373Z,11.77
2023-10-23T18:56:34.196Z,12.52
2023-10-23T18:59:00.797Z,10.78
2023-10-23T19:01:27.373Z,11.99
2023-10-23T19:03:54.009Z,10.56
2023-10-23T19:06:20.668Z,10.84
2023-10-23T19:08:52.232Z,11.26
2023-10-23T19:11:18.747Z,11.41
2023-10-23T19:13:45.637Z,11.86
2023-10-23T19:16:14.058Z,11.08
2023-10-23T19:18:40.679Z,10.04
2023-10-23T19:21:12.431Z,10.35
2023-10-23T19:23:39.702Z,11.24
2023-10-23T19:26:06.317Z,11.49
2023-10-23T19:28:33.145Z,11.24
2023-10-23T19:31:00.120Z,10.67
2023-10-23T19:33:27.172Z,10.72
2023-10-23T19:35:54.343Z,11.12
2023-10-23T19:38:21.102Z,11.82
2023-10-23T19:40:51.748Z,11.97
2023-10-23T19:43:21.760Z,11.22
2023-10-23T19:45:48.571Z,11.65
2023-10-23T19:48:15.466Z,11.70
2023-10-23T19:50:47.747Z,11.06
2023-10-23T19:53:16.319Z,10.27
2023-10-23T19:55:47.168Z,11.64
2023-10-23T19:58:16.077Z,11.24
2023-10-23T20:00:42.790Z,10.98
2023-10-23T20:03:09.391Z,10.41
2023-10-23T20:05:36.049Z,10.71
2023-10-23T20:08:02.739Z,11.81
2023-10-23T20:10:30.450Z,12.15
2023-10-23T20:13:00.170Z,11.69
2023-10-23T20:15:32.738Z,10.56
2023-10-23T20:17:59.523Z,10.50
2023-10-23T20:20:26.864Z,11.22
2023-10-23T20:22:53.633Z,11.98
2023-10-23T20:25:20.205Z,12.07
2023-10-23T20:27:46.725Z,11.49
2023-10-23T20:30:13.598Z,12.29
2023-10-23T20:32:40.269Z,10.94
2023-10-23T20:35:07.278Z,11.21
2023-10-23T20:37:34.691Z,10.27
2023-10-23T20:40:02.078Z,11.14
2023-10-23T20:42:33.697Z,10.78
2023-10-23T20:45:07.048Z,11.88
2023-10-23T20:47:33.905Z,11.43
2023-10-23T20:50:02.313Z,11.99
2023-10-23T20:52:30.518Z,11.02
2023-10-23T20:54:57.668Z,10.27
2023-10-23T20:57:24.447Z,11.74
2023-10-23T20:59:51.151Z,10.80
2023-10-23T21:02:17.865Z,12.00
2023-10-23T21:04:44.581Z,11.77
2023-10-23T21:07:11.234Z,10.99
2023-10-23T21:09:37.864Z,11.60
2023-10-23T21:12:04.727Z,11.21
2023-10-23T21:14:31.245Z,12.02
2023-10-23T21:16:57.916Z,10.84
2023-10-23T21:19:24.529Z,11.81
2023-10-23T21:21:51.087Z,12.12
2023-10-23T21:24:18.023Z,12.10
2023-10-23T21:26:44.525Z,10.67
2023-10-23T21:29:21.353Z,11.96
2023-10-23T21:31:49.394Z,11.74
2023-10-23T21:34:16.934Z,11.40
2023-10-23T21:36:44.456Z,10.41
2023-10-23T21:39:11.723Z,10.52
2023-10-23T21:41:41.892Z,10.03
2023-10-23T21:44:09.983Z,10.12
2023-10-23T21:46:36.625Z,11.56
2023-10-23T21:49:05.393Z,11.83
2023-10-23T21:51:32.810Z,10.89
2023-10-23T21:53:59.865Z,11.30
2023-10-23T21:57:13.595Z,10.65
2023-10-23T21:59:18.898Z,10.27
2023-10-23T22:01:46.984Z,10.55
2023-10-23T22:04:14.246Z,10.88
2023-10-23T22:06:41.269Z,10.85
2023-10-23T22:09:08.499Z,10.17
2023-10-23T22:11:35.347Z,11.45
2023-10-23T22:14:02.111Z,10.81
2023-10-23T22:16:28.723Z,10.62
2023-10-23T22:18:55.263Z,10.97
2023-10-23T22:21:21.780Z,10.84
2023-10-23T22:23:48.372Z,10.44
2023-10-23T22:26:14.923Z,10.35
2023-10-23T22:28:41.544Z,10.05
2023-10-23T22:31:08.235Z,11.51
2023-10-23T22:33:34.986Z,10.91
2023-10-23T22:36:01.541Z,11.49
2023-10-23T22:38:28.093Z,10.65
2023-10-23T22:40:54.696Z,11.63
2023-10-23T22:43:21.302Z,10.91
2023-10-23T22:45:59.627Z,11.02
2023-10-23T22:48:29.410Z,10.56
2023-10-23T22:50:56.416Z,10.52
2023-10-23T22:53:25.079Z,10.80
2023-10-23T22:55:55.089Z,10.62
2023-10-23T22:58:31.307Z,11.12
2023-10-23T23:00:59.451Z,10.87
2023-10-23T23:03:26.437Z,9.79
2023-10-23T23:05:55.123Z,10.97
2023-10-23T23:08:22.217Z,11.56
2023-10-23T23:10:49.117Z,9.41
2023-10-23T23:13:15.928Z,10.48
2023-10-23T23:15:46.398Z,10.42
2023-10-23T23:18:16.440Z,11.43
2023-10-23T23:20:44.915Z,10.62
2023-10-23T23:23:11.573Z,10.66
2023-10-23T23:25:38.196Z,10.71
2023-10-23T23:28:05.072Z,10.55
2023-10-23T23:30:32.636Z,11.08
2023-10-23T23:32:59.146Z,11.46
2023-10-23T23:35:25.672Z,10.69
2023-10-23T23:37:52.667Z,11.77
2023-10-23T23:40:19.226Z,11.01
2023-10-23T23:42:45.707Z,11.21
2023-10-23T23:45:12.292Z,11.26
2023-10-23T23:47:38.883Z,10.62
2023-10-23T23:50:05.934Z,11.72
2023-10-23T23:52:33.611Z,10.69
2023-10-23T23:55:00.221Z,10.60
2023-10-23T23:57:27.448Z,11.92
2023-10-23T23:59:53.971Z,11.16
